Time;durP1;ratioP1;P1;durP2;ratioP2;P2;SDS_P1;SDS_P2;PMS_P1;PMS_P2;Temp;Humidity;BMP_temperature;BMP_pressure;BME280_temperature;BME280_humidity;BME280_pressure;Samples;Min_cycle;Max_cycle;Signal;HPM_P1;HPM_P2
2023/06/06 00:01:29;;;;;;;180.65;66.45;;;;;;;19.58;61.57;101929.06;5015697;28;20222;-69
2023/06/06 00:03:56;;;;;;;183.57;66.60;;;;;;;19.57;61.42;101924.66;5013107;28;20029;-69
2023/06/06 00:06:23;;;;;;;171.73;65.10;;;;;;;19.58;61.38;101930.84;5013491;28;20399;-69
2023/06/06 00:08:50;;;;;;;258.90;78.40;;;;;;;19.58;61.30;101930.84;5047041;22;20040;-73
2023/06/06 00:11:16;;;;;;;179.75;65.78;;;;;;;19.57;61.91;101929.09;5017289;28;20056;-76
2023/06/06 00:13:42;;;;;;;179.32;66.30;;;;;;;19.56;61.33;101922.91;5005721;28;20018;-74
2023/06/06 00:16:07;;;;;;;176.00;66.25;;;;;;;19.56;61.76;101922.06;5015351;28;20021;-75
2023/06/06 00:18:33;;;;;;;179.20;65.45;;;;;;;19.56;62.77;101924.72;5019333;28;20304;-74
2023/06/06 00:20:58;;;;;;;178.55;66.93;;;;;;;19.56;62.60;101916.78;4993910;28;20105;-74
2023/06/06 00:23:24;;;;;;;180.25;67.25;;;;;;;19.56;62.29;101924.72;4994006;28;20129;-74
2023/06/06 00:25:50;;;;;;;184.05;66.80;;;;;;;19.56;62.21;101922.06;4993879;28;20022;-74
2023/06/06 00:28:16;;;;;;;176.70;65.88;;;;;;;19.54;62.51;101919.47;5005792;28;20013;-74
2023/06/06 00:30:41;;;;;;;177.80;65.75;;;;;;;19.54;62.43;101919.47;5002203;28;20076;-74
2023/06/06 00:33:07;;;;;;;183.60;67.55;;;;;;;19.54;62.56;101913.31;4978128;28;20026;-74
2023/06/06 00:35:33;;;;;;;190.40;68.45;;;;;;;19.53;61.97;101916.88;4994915;28;20392;-74
2023/06/06 00:37:58;;;;;;;193.48;68.10;;;;;;;19.53;62.29;101911.59;5002957;28;20097;-74
2023/06/06 00:40:23;;;;;;;178.13;66.28;;;;;;;19.52;62.46;101915.16;4971887;28;20507;-74
2023/06/06 00:42:49;;;;;;;182.25;65.13;;;;;;;19.52;62.39;101909.84;4994178;28;20476;-75
2023/06/06 00:45:14;;;;;;;175.52;63.95;;;;;;;19.52;62.39;101904.53;4994299;28;20492;-73
2023/06/06 00:47:40;;;;;;;191.50;67.32;;;;;;;19.52;62.67;101909.84;4999777;28;21626;-74
2023/06/06 00:50:05;;;;;;;172.60;63.33;;;;;;;19.52;62.34;101909.84;4977116;28;20019;-75
2023/06/06 00:52:31;;;;;;;181.35;65.53;;;;;;;19.52;62.77;101912.50;5010208;28;20022;-74
2023/06/06 00:54:57;;;;;;;172.55;64.90;;;;;;;19.50;62.68;101906.41;4993163;28;20030;-74
2023/06/06 00:57:31;;;;;;;180.45;66.05;;;;;;;19.50;62.71;101912.56;5003654;28;20022;-74
2023/06/06 00:59:57;;;;;;;176.77;65.10;;;;;;;19.51;62.73;101908.09;4992197;28;20479;-75
2023/06/06 01:02:24;;;;;;;191.13;68.18;;;;;;;19.49;62.78;101902.00;4992272;28;20033;-74
2023/06/06 01:04:50;;;;;;;183.88;67.18;;;;;;;19.50;62.66;101912.56;4994019;28;20494;-74
2023/06/06 01:07:17;;;;;;;189.60;67.68;;;;;;;19.50;62.93;101914.34;4988345;28;20518;-74
2023/06/06 01:09:43;;;;;;;183.07;66.65;;;;;;;19.49;62.60;101916.13;4976978;28;20113;-74
2023/06/06 01:12:23;;;;;;;187.88;67.05;;;;;;;19.48;63.08;101910.88;4993514;28;20113;-74
2023/06/06 01:15:11;;;;;;;184.57;67.00;;;;;;;19.48;63.24;101914.38;4988149;28;20034;-75
2023/06/06 01:17:39;;;;;;;190.88;66.95;;;;;;;19.48;63.19;101913.53;5005072;28;20395;-74
2023/06/06 01:20:06;;;;;;;178.73;64.85;;;;;;;19.47;63.21;101903.84;4992128;28;20082;-74
2023/06/06 01:22:33;;;;;;;179.73;65.82;;;;;;;19.49;63.36;101915.25;4991893;28;20034;-73
2023/06/06 01:24:58;;;;;;;181.30;66.03;;;;;;;19.47;63.29;101914.44;4990547;28;20476;-74
2023/06/06 01:27:24;;;;;;;176.93;65.47;;;;;;;19.46;63.64;101904.78;4999824;28;20152;-74
2023/06/06 01:29:50;;;;;;;177.57;64.63;;;;;;;19.46;63.43;101910.94;4974593;28;20494;-74
2023/06/06 01:32:22;;;;;;;182.10;67.40;;;;;;;19.46;63.89;101912.72;4992950;28;20077;-74
2023/06/06 01:34:59;;;;;;;178.05;64.43;;;;;;;19.46;63.75;101918.03;4992367;28;20030;-74
2023/06/06 01:37:34;;;;;;;180.45;65.60;;;;;;;19.45;63.96;101913.63;5000264;28;20165;-74
2023/06/06 01:40:04;;;;;;;180.32;65.57;;;;;;;19.45;64.17;101916.28;4988358;28;20046;-74
2023/06/06 01:42:32;;;;;;;174.50;65.15;;;;;;;19.47;64.03;101917.09;4992892;28;20403;-74
2023/06/06 01:44:58;;;;;;;188.60;66.72;;;;;;;19.43;64.46;101909.25;4974211;28;20399;-74
2023/06/06 01:47:24;;;;;;;179.30;65.65;;;;;;;19.43;64.21;101911.91;4991881;28;20042;-75
2023/06/06 01:49:50;;;;;;;175.35;64.10;;;;;;;19.43;64.67;101909.25;5003353;28;20140;-74
2023/06/06 01:52:15;;;;;;;178.80;65.10;;;;;;;19.42;64.87;101912.81;4992511;28;20030;-74
2023/06/06 01:54:41;;;;;;;178.02;65.53;;;;;;;19.42;65.62;101910.16;4990106;28;20026;-73
2023/06/06 01:57:07;;;;;;;179.50;65.18;;;;;;;19.42;65.11;101914.59;5010104;28;20021;-73
2023/06/06 01:59:33;;;;;;;180.88;65.15;;;;;;;19.41;64.89;101911.09;4999427;28;20422;-73
2023/06/06 02:01:58;;;;;;;183.43;67.50;;;;;;;19.41;65.45;101910.22;4993732;28;20029;-74
2023/06/06 02:04:24;;;;;;;178.48;65.25;;;;;;;19.40;65.90;101911.13;5014246;28;20038;-73
2023/06/06 02:06:49;;;;;;;179.43;64.78;;;;;;;19.40;65.87;101912.00;4990753;28;20535;-73
2023/06/06 02:09:14;;;;;;;180.57;65.35;;;;;;;19.39;65.37;101912.91;4973560;28;20045;-73
2023/06/06 02:11:40;;;;;;;176.80;65.97;;;;;;;19.39;65.60;101915.56;5015628;28;20037;-72
2023/06/06 02:14:08;;;;;;;188.05;66.95;;;;;;;19.39;65.36;101912.91;5005348;28;20483;-73
2023/06/06 02:16:33;;;;;;;180.23;66.30;;;;;;;19.39;65.51;101912.91;5020591;28;20053;-73
2023/06/06 02:18:59;;;;;;;180.68;64.50;;;;;;;19.38;65.99;101911.19;4998499;28;20046;-75
2023/06/06 02:21:24;;;;;;;186.00;67.68;;;;;;;19.38;65.80;101913.81;4991580;28;20034;-73
2023/06/06 02:23:49;;;;;;;179.65;64.57;;;;;;;19.38;65.93;101908.53;4992951;28;20030;-73
2023/06/06 02:26:16;;;;;;;181.45;65.15;;;;;;;19.37;65.94;101900.63;4991113;28;20046;-73
2023/06/06 02:28:42;;;;;;;181.95;65.50;;;;;;;19.36;66.19;101905.09;4993126;28;20022;-73
2023/06/06 02:31:08;;;;;;;182.95;66.78;;;;;;;19.35;65.91;101898.03;5015131;28;20025;-73
2023/06/06 02:33:34;;;;;;;185.95;65.80;;;;;;;19.35;65.88;101906.00;4998211;28;20552;-73
2023/06/06 02:36:00;;;;;;;179.07;64.28;;;;;;;19.36;66.11;101905.09;4998353;28;20112;-72
2023/06/06 02:38:25;;;;;;;180.60;65.93;;;;;;;19.35;65.23;101903.34;4990729;28;20026;-72
2023/06/06 02:40:51;;;;;;;179.75;65.22;;;;;;;19.35;65.63;101907.78;4994025;28;20381;-73
2023/06/06 02:43:20;;;;;;;179.32;66.05;;;;;;;19.34;65.41;101904.25;4999266;28;20077;-72
2023/06/06 02:45:46;;;;;;;178.50;64.15;;;;;;;19.34;65.71;101900.75;4975111;28;20037;-74
2023/06/06 02:48:12;;;;;;;182.32;65.82;;;;;;;19.34;66.07;101906.91;4990392;28;20422;-72
2023/06/06 02:50:40;;;;;;;174.85;63.03;;;;;;;19.34;65.88;101906.91;4988383;28;20022;-73
2023/06/06 02:53:06;;;;;;;178.27;64.72;;;;;;;19.34;66.04;101908.69;4993361;28;20018;-73
2023/06/06 02:55:31;;;;;;;177.27;65.55;;;;;;;19.34;66.42;101901.59;4991394;28;20045;-73
2023/06/06 02:57:57;;;;;;;179.43;63.63;;;;;;;19.34;66.39;101917.50;4992447;28;20480;-72
2023/06/06 03:00:22;;;;;;;178.60;65.78;;;;;;;19.34;66.53;101912.19;4995985;28;20113;-72
2023/06/06 03:02:48;;;;;;;184.88;67.00;;;;;;;19.34;66.70;101906.03;4987005;28;20112;-73
2023/06/06 03:05:13;;;;;;;178.23;65.43;;;;;;;19.34;66.62;101917.50;5002668;28;20035;-73
2023/06/06 03:07:38;;;;;;;178.77;64.53;;;;;;;19.35;67.20;101910.44;4983346;28;20157;-73
2023/06/06 03:10:07;;;;;;;181.10;66.60;;;;;;;19.34;66.97;101912.19;4994202;28;20025;-72
2023/06/06 03:12:32;;;;;;;178.38;63.80;;;;;;;19.35;66.80;101913.94;4986681;28;20021;-73
2023/06/06 03:14:57;;;;;;;180.18;66.60;;;;;;;19.36;66.88;101909.50;4980452;28;20030;-73
2023/06/06 03:17:25;;;;;;;192.85;65.43;;;;;;;19.37;66.96;101911.22;4989478;28;20081;-73
2023/06/06 03:19:50;;;;;;;180.40;64.65;;;;;;;19.37;66.41;101911.22;4984584;28;20546;-72
2023/06/06 03:22:17;;;;;;;180.00;64.88;;;;;;;19.37;66.50;101911.22;5009416;28;20022;-73
2023/06/06 03:24:45;;;;;;;178.82;64.90;;;;;;;19.39;66.76;101915.56;4990251;28;20508;-73
2023/06/06 03:27:11;;;;;;;182.95;65.22;;;;;;;19.39;66.57;101915.56;4991786;28;20081;-72
2023/06/06 03:29:40;;;;;;;181.23;65.57;;;;;;;19.40;66.68;101912.00;4990424;28;20024;-72
2023/06/06 03:32:06;;;;;;;177.32;64.28;;;;;;;19.41;66.49;101919.03;5002350;28;20028;-73
2023/06/06 03:34:32;;;;;;;178.30;63.60;;;;;;;19.41;66.54;101919.03;4996702;28;20031;-73
2023/06/06 03:36:58;;;;;;;176.23;64.10;;;;;;;19.42;66.61;101915.44;4990995;28;20033;-73
2023/06/06 03:39:24;;;;;;;176.30;64.03;;;;;;;19.45;66.40;101916.28;4990644;28;20030;-73
2023/06/06 03:41:50;;;;;;;179.95;65.53;;;;;;;19.45;66.54;101914.47;4997714;28;20058;-72
2023/06/06 03:44:18;;;;;;;192.27;67.13;;;;;;;19.47;66.90;101914.44;4994195;28;20511;-73
2023/06/06 03:46:43;;;;;;;183.20;67.03;;;;;;;19.48;66.48;101913.53;4998981;28;20101;-72
2023/06/06 03:49:08;;;;;;;182.93;64.70;;;;;;;19.49;66.82;101918.75;4990410;28;20564;-74
2023/06/06 03:51:35;;;;;;;180.18;64.13;;;;;;;19.50;66.71;101917.00;4992590;28;20077;-74
2023/06/06 03:54:01;;;;;;;177.77;64.45;;;;;;;19.51;66.56;101919.59;4991737;28;20105;-74
2023/06/06 03:56:27;;;;;;;183.02;65.82;;;;;;;19.53;66.49;101914.22;4990714;28;20060;-74
2023/06/06 03:58:55;;;;;;;177.07;64.90;;;;;;;19.54;66.34;101914.19;4997534;28;20034;-74
2023/06/06 04:01:20;;;;;;;183.02;66.00;;;;;;;19.55;66.13;101915.03;4979046;28;20033;-74
2023/06/06 04:03:46;;;;;;;177.50;65.35;;;;;;;19.56;66.17;101919.41;4997621;28;20026;-74
2023/06/06 04:06:15;;;;;;;175.90;65.30;;;;;;;19.58;65.96;101914.94;4988956;28;20190;-74
2023/06/06 04:08:40;;;;;;;178.45;65.05;;;;;;;19.57;65.68;101919.38;4990445;28;20144;-74
2023/06/06 04:11:06;;;;;;;179.60;65.20;;;;;;;19.60;65.77;101918.38;5002335;28;20058;-74
2023/06/06 04:13:34;;;;;;;177.07;63.55;;;;;;;19.61;65.70;101920.13;4979531;28;20025;-74
2023/06/06 04:16:00;;;;;;;178.50;65.80;;;;;;;19.63;65.98;101922.72;4973662;28;20037;-74
2023/06/06 04:18:25;;;;;;;171.43;64.20;;;;;;;19.64;65.93;101920.00;4971979;28;20023;-73
2023/06/06 04:20:52;;;;;;;178.88;64.90;;;;;;;19.65;65.86;101927.06;4972585;28;20038;-74
2023/06/06 04:23:18;;;;;;;179.15;65.22;;;;;;;19.66;66.21;101920.84;4974039;28;20022;-74
2023/06/06 04:25:43;;;;;;;191.63;67.80;;;;;;;19.68;65.54;101919.00;4993655;28;20096;-74
2023/06/06 04:28:08;;;;;;;181.18;67.15;;;;;;;19.70;65.12;101919.81;4996025;28;20088;-74
2023/06/06 04:30:34;;;;;;;182.02;66.43;;;;;;;19.72;65.17;101919.75;5014668;28;20033;-74
2023/06/06 04:33:00;;;;;;;176.70;64.40;;;;;;;19.73;64.82;101917.06;4991055;28;20053;-73
2023/06/06 04:35:25;;;;;;;179.40;64.25;;;;;;;19.74;65.28;101916.13;5002485;28;20029;-73
2023/06/06 04:37:53;;;;;;;194.45;68.25;;;;;;;19.76;65.40;101919.59;4991846;28;20033;-73
2023/06/06 04:40:21;;;;;;;190.40;65.65;;;;;;;19.77;65.06;101915.16;4974479;28;20048;-74
2023/06/06 04:42:47;;;;;;;182.57;65.28;;;;;;;19.79;64.90;101907.16;4991648;28;20033;-74
2023/06/06 04:45:13;;;;;;;195.93;66.25;;;;;;;19.81;65.05;101913.28;4994266;28;20025;-74
2023/06/06 04:47:40;;;;;;;185.10;66.47;;;;;;;19.83;64.50;101908.81;4993504;28;20022;-75
2023/06/06 04:50:06;;;;;;;189.55;66.63;;;;;;;19.84;63.74;101913.19;4990749;28;20030;-73
2023/06/06 04:52:33;;;;;;;182.23;65.68;;;;;;;19.85;64.65;101914.91;4992178;28;20030;-73
2023/06/06 04:55:03;;;;;;;184.80;66.30;;;;;;;19.86;64.92;101911.34;5007939;28;20034;-73
2023/06/06 04:57:28;;;;;;;177.85;65.88;;;;;;;19.89;64.50;101911.22;4993145;28;20068;-73
2023/06/06 04:59:54;;;;;;;178.50;64.78;;;;;;;19.89;63.97;101904.16;5011649;28;20038;-73
2023/06/06 05:02:21;;;;;;;172.82;65.53;;;;;;;19.92;63.88;101911.13;5008336;28;20028;-73
2023/06/06 05:04:58;;;;;;;182.13;66.93;;;;;;;19.93;64.36;101910.19;5020008;28;20510;-73
2023/06/06 05:07:24;;;;;;;178.98;66.75;;;;;;;19.95;64.28;101913.66;4994312;28;20427;-72
2023/06/06 05:09:53;;;;;;;178.63;65.03;;;;;;;19.97;64.08;101908.31;4994677;28;20034;-72
2023/06/06 05:12:18;;;;;;;179.05;64.93;;;;;;;19.98;63.73;101912.69;4993129;28;20093;-73
2023/06/06 05:14:44;;;;;;;177.95;64.95;;;;;;;20.01;64.23;101912.56;4992925;28;20563;-73
2023/06/06 05:17:13;;;;;;;185.38;64.07;;;;;;;20.02;64.28;101909.84;4977113;28;20539;-73
2023/06/06 05:19:38;;;;;;;179.38;65.13;;;;;;;20.03;64.05;101916.06;4982341;28;20038;-73
2023/06/06 05:22:04;;;;;;;178.65;64.70;;;;;;;20.05;64.24;101919.50;4992489;28;20038;-73
2023/06/06 05:24:29;;;;;;;182.52;66.40;;;;;;;20.06;64.13;101916.78;4992014;28;20058;-73
2023/06/06 05:26:55;;;;;;;178.40;64.20;;;;;;;20.09;64.00;101921.97;5001125;28;20036;-72
2023/06/06 05:29:22;;;;;;;180.00;65.47;;;;;;;20.12;63.71;101914.84;5023532;28;20094;-72
2023/06/06 05:31:47;;;;;;;174.30;62.47;;;;;;;20.13;64.34;101921.88;4992848;28;20083;-72
2023/06/06 05:34:12;;;;;;;205.88;69.25;;;;;;;20.14;64.44;101919.16;5007189;28;20022;-72
2023/06/06 05:36:38;;;;;;;177.18;63.60;;;;;;;20.15;64.26;101917.34;4992403;28;20023;-72
2023/06/06 05:39:03;;;;;;;177.85;63.58;;;;;;;20.18;64.06;101917.25;4992704;28;20018;-74
2023/06/06 05:41:29;;;;;;;177.85;63.70;;;;;;;20.19;63.65;101917.22;4993731;28;20060;-73
2023/06/06 05:43:57;;;;;;;176.48;64.15;;;;;;;20.21;63.67;101914.50;4976628;28;20027;-73
2023/06/06 05:46:22;;;;;;;179.95;64.30;;;;;;;20.22;63.31;101917.09;5008200;28;20400;-74
2023/06/06 05:48:47;;;;;;;179.25;64.20;;;;;;;20.24;63.28;101919.69;4992105;28;20026;-73
2023/06/06 05:51:13;;;;;;;181.70;64.57;;;;;;;20.23;63.11;101912.63;4992400;28;20472;-73
2023/06/06 05:53:45;;;;;;;176.52;63.65;;;;;;;20.27;63.05;101920.44;4993819;28;20456;-73
2023/06/06 05:56:12;;;;;;;178.32;63.75;;;;;;;20.33;62.37;101919.34;4993294;28;20029;-73
2023/06/06 05:58:37;;;;;;;174.57;62.90;;;;;;;20.36;61.94;101913.91;4976089;28;20026;-73
2023/06/06 06:01:02;;;;;;;180.95;66.20;;;;;;;20.41;61.39;101919.91;4993564;28;20057;-73
2023/06/06 06:03:28;;;;;;;183.43;64.97;;;;;;;20.46;61.16;101918.88;4993495;28;20068;-73
2023/06/06 06:06:04;;;;;;;175.68;64.68;;;;;;;20.51;60.92;101916.91;4992399;28;20027;-73
2023/06/06 06:08:31;;;;;;;176.18;64.03;;;;;;;20.58;60.13;101921.91;4973179;28;20076;-73
2023/06/06 06:10:56;;;;;;;170.88;63.72;;;;;;;20.65;60.29;101919.88;5011569;22;20042;-68
2023/06/06 06:13:22;;;;;;;201.48;66.30;;;;;;;20.77;59.93;101918.56;4991236;28;20023;-68
2023/06/06 06:15:47;;;;;;;182.93;66.25;;;;;;;20.92;59.26;101923.25;4992524;28;20108;-68
2023/06/06 06:18:13;;;;;;;185.90;65.35;;;;;;;21.24;58.72;101922.84;4991928;28;20141;-69
2023/06/06 06:20:38;;;;;;;175.23;62.60;;;;;;;21.93;56.61;101919.03;4992992;28;20034;-68
2023/06/06 06:23:03;;;;;;;180.05;64.68;;;;;;;22.65;54.64;101914.03;4994167;28;20037;-68
2023/06/06 06:25:29;;;;;;;180.05;63.33;;;;;;;23.19;53.13;101916.72;4992847;28;20038;-68
2023/06/06 06:27:55;;;;;;;186.38;64.70;;;;;;;23.61;52.30;101920.81;4992428;28;20472;-68
2023/06/06 06:30:20;;;;;;;185.13;64.88;;;;;;;23.94;50.90;101923.53;4992699;28;20030;-68
2023/06/06 06:32:46;;;;;;;175.93;62.97;;;;;;;24.18;49.94;101920.47;4992813;28;20032;-69
2023/06/06 06:35:11;;;;;;;173.88;64.80;;;;;;;24.40;49.14;101919.31;4992890;28;20057;-69
2023/06/06 06:37:37;;;;;;;181.88;66.13;;;;;;;24.54;49.20;101918.53;5007539;28;20491;-69
2023/06/06 06:40:09;;;;;;;181.05;65.88;;;;;;;24.73;48.51;101916.59;4993008;28;20064;-68
2023/06/06 06:42:39;;;;;;;184.75;66.53;;;;;;;24.90;48.28;101917.44;4991427;28;20491;-69
2023/06/06 06:45:08;;;;;;;181.23;65.38;;;;;;;25.06;48.19;101925.41;4990055;28;20558;-69
2023/06/06 06:47:37;;;;;;;194.60;67.38;;;;;;;25.27;47.21;101923.31;4990378;28;20015;-68
2023/06/06 06:50:04;;;;;;;172.40;63.53;;;;;;;25.41;46.26;101923.34;4991383;28;20037;-68
2023/06/06 06:52:33;;;;;;;177.32;64.10;;;;;;;25.57;45.89;101923.31;4992793;28;20030;-69
2023/06/06 06:55:00;;;;;;;183.88;66.22;;;;;;;25.64;46.46;101926.47;5006996;28;20118;-69
2023/06/06 06:57:26;;;;;;;178.23;64.25;;;;;;;25.78;45.44;101923.81;4991315;28;20033;-70
2023/06/06 06:59:56;;;;;;;175.40;65.57;;;;;;;25.86;45.96;101926.00;4991025;28;20034;-70
2023/06/06 07:02:23;;;;;;;179.65;67.43;;;;;;;26.10;44.57;101926.34;4991455;28;20053;-69
2023/06/06 07:04:49;;;;;;;179.07;67.50;;;;;;;26.18;44.18;101930.34;4990525;28;20415;-70
2023/06/06 07:07:17;;;;;;;182.90;68.28;;;;;;;26.43;44.04;101922.47;4992453;28;20026;-70
2023/06/06 07:09:43;;;;;;;177.25;67.32;;;;;;;26.51;43.72;101927.34;4990995;28;20108;-67
2023/06/06 07:12:12;;;;;;;174.60;65.78;;;;;;;26.61;44.18;101919.56;4992716;28;20699;-70
2023/06/06 07:14:41;;;;;;;186.20;69.53;;;;;;;26.79;43.39;101914.84;4991519;28;20058;-70
2023/06/06 07:17:08;;;;;;;177.77;67.60;;;;;;;26.90;43.57;101919.50;4992370;28;20026;-70
2023/06/06 07:19:35;;;;;;;181.40;68.45;;;;;;;27.02;43.15;101917.81;4991287;28;20391;-70
2023/06/06 07:22:04;;;;;;;182.55;68.90;;;;;;;27.05;43.24;101921.16;4991292;28;20045;-70
2023/06/06 07:24:29;;;;;;;181.68;68.57;;;;;;;27.22;42.69;101924.53;4990352;28;20026;-70
2023/06/06 07:26:54;;;;;;;171.15;67.10;;;;;;;27.28;42.39;101916.06;4991668;28;20472;-71
2023/06/06 07:29:21;;;;;;;204.32;72.65;;;;;;;27.47;41.31;101910.31;4984735;28;20030;-70
2023/06/06 07:31:47;;;;;;;188.48;69.03;;;;;;;27.64;41.65;101914.53;4984308;28;20117;-69
2023/06/06 07:34:12;;;;;;;205.20;70.97;;;;;;;27.73;41.02;101916.59;4985998;28;20113;-71
2023/06/06 07:36:37;;;;;;;182.80;67.70;;;;;;;27.82;41.00;101904.31;4983029;28;20157;-71
2023/06/06 07:39:03;;;;;;;195.13;70.43;;;;;;;27.98;41.11;101913.00;4989999;28;20038;-72
2023/06/06 07:41:33;;;;;;;180.82;66.38;;;;;;;27.97;41.18;101916.66;4990698;28;20015;-71
2023/06/06 07:43:59;;;;;;;179.93;68.28;;;;;;;28.04;40.38;101906.38;4991117;28;20034;-69
2023/06/06 07:46:24;;;;;;;178.15;68.15;;;;;;;28.26;41.26;101907.50;4991287;28;20170;-71
2023/06/06 07:48:50;;;;;;;186.27;69.63;;;;;;;28.26;40.12;101913.72;4984106;28;20971;-74
2023/06/06 07:51:16;;;;;;;184.50;69.97;;;;;;;28.64;39.48;101909.25;5002711;28;20847;-70
2023/06/06 07:53:43;;;;;;;191.02;71.47;;;;;;;28.78;39.49;101911.78;4986253;28;20065;-68
2023/06/06 07:56:09;;;;;;;180.52;68.50;;;;;;;28.97;38.66;101915.75;4990150;28;20046;-66
2023/06/06 07:58:52;;;;;;;180.68;69.85;;;;;;;29.19;37.77;101909.59;4991449;28;20069;-66
2023/06/06 08:01:21;;;;;;;183.60;68.95;;;;;;;29.23;38.15;101915.59;5004428;28;20113;-66
2023/06/06 08:03:50;;;;;;;184.93;68.88;;;;;;;29.24;37.96;101917.34;4973298;28;20106;-68
2023/06/06 08:06:19;;;;;;;180.55;68.65;;;;;;;29.35;37.69;101914.69;4985164;28;20041;-68
2023/06/06 08:08:51;;;;;;;184.88;68.97;;;;;;;29.33;37.35;101908.59;4986043;28;20029;-68
2023/06/06 08:11:17;;;;;;;175.43;68.80;;;;;;;29.43;37.39;101909.56;4986581;28;20056;-68
2023/06/06 08:13:43;;;;;;;180.90;68.82;;;;;;;29.53;36.38;101907.03;4990227;28;20503;-68
2023/06/06 08:16:08;;;;;;;203.68;73.57;;;;;;;29.67;35.89;101905.97;4974502;28;20065;-68
2023/06/06 08:18:33;;;;;;;186.45;69.32;;;;;;;29.71;35.65;101904.75;4993253;28;20397;-68
2023/06/06 08:20:59;;;;;;;181.13;68.55;;;;;;;29.77;35.06;101908.78;4987485;28;20033;-68
2023/06/06 08:23:24;;;;;;;189.98;70.47;;;;;;;29.96;35.56;101909.06;4987649;28;20495;-68
2023/06/06 08:25:55;;;;;;;199.43;71.43;;;;;;;29.95;34.56;101907.31;4990051;28;20018;-67
2023/06/06 08:28:21;;;;;;;190.10;70.80;;;;;;;30.14;34.79;101912.09;4980791;28;20126;-67
2023/06/06 08:30:47;;;;;;;179.30;69.70;;;;;;;30.08;33.71;101901.81;4989491;28;20034;-68
2023/06/06 08:33:12;;;;;;;181.77;70.93;;;;;;;30.24;33.70;101908.66;4992737;28;20042;-68
2023/06/06 08:35:37;;;;;;;183.05;70.47;;;;;;;30.31;34.32;101902.66;4985560;28;20125;-69
2023/06/06 08:38:02;;;;;;;187.82;71.80;;;;;;;30.33;33.53;101897.13;4987787;28;20030;-70
2023/06/06 08:40:28;;;;;;;180.25;68.72;;;;;;;30.46;33.24;101897.88;4989817;28;20034;-68
2023/06/06 08:42:55;;;;;;;176.90;68.75;;;;;;;30.42;32.54;101893.69;4991815;28;20027;-69
2023/06/06 08:45:21;;;;;;;182.38;69.70;;;;;;;30.57;33.02;101893.44;4976856;28;20029;-69
2023/06/06 08:47:48;;;;;;;189.48;70.95;;;;;;;30.71;31.88;101893.16;4974755;28;20492;-70
2023/06/06 08:50:14;;;;;;;185.38;71.03;;;;;;;30.84;31.46;101883.03;4994557;28;20030;-70
2023/06/06 08:52:40;;;;;;;181.55;69.25;;;;;;;30.90;31.15;101881.66;4985548;28;20088;-70
2023/06/06 08:55:06;;;;;;;194.52;72.97;;;;;;;31.05;30.83;101879.53;4985431;28;20054;-70
2023/06/06 08:57:32;;;;;;;234.25;78.05;;;;;;;31.08;31.23;101889.22;4982783;28;20034;-69
2023/06/06 09:00:00;;;;;;;200.50;73.22;;;;;;;31.01;31.09;101884.31;4982332;28;20034;-71
2023/06/06 09:02:28;;;;;;;192.05;71.15;;;;;;;30.68;30.96;101890.72;4982474;28;20031;-69
2023/06/06 09:04:56;;;;;;;191.82;71.93;;;;;;;31.08;30.59;101889.22;4991456;28;20101;-68
2023/06/06 09:07:24;;;;;;;185.88;71.70;;;;;;;31.12;30.67;101886.13;4986789;28;20026;-70
2023/06/06 09:09:51;;;;;;;176.38;70.28;;;;;;;31.19;30.58;101881.06;4988207;28;20582;-70
2023/06/06 09:12:16;;;;;;;183.32;71.63;;;;;;;30.81;30.38;101888.72;4983130;28;20388;-72
2023/06/06 09:14:42;;;;;;;184.27;70.00;;;;;;;30.90;30.61;101883.53;4999574;28;20022;-71
2023/06/06 09:17:14;;;;;;;218.75;77.07;;;;;;;30.99;29.64;101890.81;4983538;28;20022;-71
2023/06/06 09:19:40;;;;;;;205.82;73.50;;;;;;;31.06;30.00;101886.66;4988015;28;20038;-70
2023/06/06 09:22:07;;;;;;;215.45;74.80;;;;;;;30.75;30.18;101882.97;4987329;28;20393;-71
2023/06/06 09:24:32;;;;;;;211.32;75.75;;;;;;;30.95;29.68;101887.53;4989113;28;20022;-71
2023/06/06 09:26:58;;;;;;;217.93;77.97;;;;;;;30.96;30.37;101888.38;4986204;28;20121;-70
2023/06/06 09:29:26;;;;;;;211.30;75.35;;;;;;;30.82;30.46;101882.31;4985133;28;20512;-73
2023/06/06 09:31:51;;;;;;;200.45;74.15;;;;;;;30.46;31.15;101888.91;4983878;28;20500;-72
2023/06/06 09:34:23;;;;;;;220.25;76.65;;;;;;;30.47;30.54;101883.44;4992654;28;20080;-72
2023/06/06 09:36:51;;;;;;;209.02;85.30;;;;;;;30.05;31.85;101891.31;4968114;28;20035;-72
2023/06/06 09:39:17;;;;;;;204.82;79.85;;;;;;;30.00;31.93;101888.13;4975122;28;20022;-72
2023/06/06 09:41:47;;;;;;;196.73;76.05;;;;;;;30.05;31.57;101885.94;4992299;28;20514;-72
2023/06/06 09:44:22;;;;;;;210.90;83.10;;;;;;;30.08;32.32;101874.00;4980169;28;20656;-72
2023/06/06 09:46:58;;;;;;;204.82;76.45;;;;;;;29.67;32.38;101881.72;4981161;28;20042;-72
2023/06/06 09:49:24;;;;;;;207.00;78.32;;;;;;;29.53;33.03;101880.09;4992344;28;20014;-73
2023/06/06 09:51:51;;;;;;;200.65;72.03;;;;;;;29.43;33.14;101879.13;4990210;28;20042;-73
2023/06/06 09:54:17;;;;;;;214.30;73.18;;;;;;;29.17;33.58;101877.44;4988763;28;20177;-72
2023/06/06 09:56:44;;;;;;;196.18;74.38;;;;;;;28.96;34.19;101877.25;4992157;28;20098;-73
2023/06/06 09:59:11;;;;;;;202.02;72.82;;;;;;;28.57;34.72;101876.56;4971536;28;20519;-72
2023/06/06 10:01:37;;;;;;;219.68;77.05;;;;;;;28.01;35.74;101874.38;4999409;28;20027;-72
2023/06/06 10:04:04;;;;;;;208.52;72.82;;;;;;;27.39;37.05;101869.75;4996150;28;20113;-72
2023/06/06 10:06:38;;;;;;;192.75;71.93;;;;;;;26.97;37.57;101872.56;5002935;28;20054;-73
2023/06/06 10:09:05;;;;;;;199.07;73.22;;;;;;;26.48;38.73;101872.13;4975778;28;20537;-73
2023/06/06 10:11:32;;;;;;;200.15;80.93;;;;;;;26.17;39.84;101875.09;5007628;28;20046;-73
2023/06/06 10:13:58;;;;;;;200.10;73.32;;;;;;;25.84;40.09;101870.84;4986415;28;20088;-72
2023/06/06 10:16:25;;;;;;;198.13;72.10;;;;;;;25.58;40.61;101868.84;4967491;28;20030;-71
2023/06/06 10:18:51;;;;;;;210.82;88.47;;;;;;;25.40;41.46;101873.53;4984384;28;20058;-73
2023/06/06 10:21:17;;;;;;;195.50;70.63;;;;;;;25.19;41.71;101880.13;5004519;28;20444;-72
2023/06/06 10:23:43;;;;;;;198.93;72.32;;;;;;;24.95;41.98;101869.91;4986206;28;20101;-72
2023/06/06 10:26:15;;;;;;;185.80;70.90;;;;;;;24.75;42.42;101871.09;4996366;28;20034;-72
2023/06/06 10:28:48;;;;;;;204.43;73.95;;;;;;;24.54;43.37;101867.78;4994366;28;20057;-72
2023/06/06 10:31:36;;;;;;;192.90;72.95;;;;;;;24.37;43.87;101868.75;4994123;28;20022;-72
2023/06/06 10:34:10;;;;;;;205.27;73.38;;;;;;;24.17;44.47;101864.53;4991733;28;20018;-70
2023/06/06 10:36:40;;;;;;;197.90;71.88;;;;;;;24.01;44.55;101860.03;5010408;28;20026;-72
2023/06/06 10:39:19;;;;;;;202.80;72.40;;;;;;;23.84;45.69;101868.91;4992646;28;20065;-72
2023/06/06 10:41:52;;;;;;;197.15;70.85;;;;;;;23.72;45.38;101869.56;5003386;28;20084;-72
2023/06/06 10:44:25;;;;;;;209.55;74.28;;;;;;;23.58;45.96;101864.97;5007228;28;20054;-72
2023/06/06 10:46:51;;;;;;;193.02;71.68;;;;;;;23.49;46.12;101862.78;4991269;28;20029;-72
2023/06/06 10:49:16;;;;;;;220.85;75.13;;;;;;;23.38;46.76;101866.88;4996189;28;20034;-71
2023/06/06 10:51:41;;;;;;;205.85;71.65;;;;;;;23.27;46.36;101862.13;4984396;28;20023;-72
2023/06/06 10:54:20;;;;;;;236.82;77.57;;;;;;;23.18;46.41;101859.91;4986095;28;20025;-70
2023/06/06 10:56:53;;;;;;;204.25;71.13;;;;;;;23.11;47.07;101859.31;4987992;28;20030;-72
2023/06/06 10:59:37;;;;;;;195.50;71.75;;;;;;;23.02;47.11;101859.78;4981033;28;20033;-72
2023/06/06 11:02:10;;;;;;;207.43;73.47;;;;;;;22.95;47.75;101859.22;4985566;28;20130;-72